Time;durP1;ratioP1;P1;durP2;ratioP2;P2;SDS_P1;SDS_P2;PMS_P1;PMS_P2;Temp;Humidity;BMP_temperature;BMP_pressure;BME280_temperature;BME280_humidity;BME280_pressure;Samples;Min_cycle;Max_cycle;Signal;HPM_P1;HPM_P2
2021/12/07 00:00:09;;;;;;;31.13;14.43;;;;;;;0.97;100.00;100006.47;5192276;28;20418;-76
2021/12/07 00:02:40;;;;;;;39.05;15.85;;;;;;;1.02;100.00;99999.56;5185082;28;20653;-76
2021/12/07 00:05:10;;;;;;;35.13;14.90;;;;;;;1.03;100.00;99990.97;5194730;23;20030;-77
2021/12/07 00:07:43;;;;;;;40.58;16.23;;;;;;;0.99;100.00;99986.72;5228641;28;20506;-78
2021/12/07 00:10:15;;;;;;;40.22;15.27;;;;;;;0.98;100.00;99977.28;5227092;28;20331;-78
2021/12/07 00:12:46;;;;;;;33.78;14.65;;;;;;;0.98;100.00;99966.13;5216125;28;20048;-77
2021/12/07 00:15:21;;;;;;;40.55;16.40;;;;;;;1.00;100.00;99970.41;5229997;28;20024;-78
2021/12/07 00:17:52;;;;;;;42.15;15.23;;;;;;;0.96;100.00;99958.44;5204132;28;20163;-76
2021/12/07 00:20:24;;;;;;;36.10;14.05;;;;;;;0.94;100.00;99955.03;5203662;28;20149;-77
2021/12/07 00:22:58;;;;;;;37.15;15.65;;;;;;;0.89;100.00;99949.06;5203504;28;20030;-77
2021/12/07 00:25:29;;;;;;;36.63;15.15;;;;;;;0.93;100.00;99953.31;5203796;28;20526;-77
2021/12/07 00:28:00;;;;;;;37.17;15.63;;;;;;;0.93;100.00;99953.31;5202265;28;20053;-77
2021/12/07 00:30:33;;;;;;;37.58;14.80;;;;;;;0.97;100.00;99955.00;5207013;28;20025;-77
2021/12/07 00:33:55;;;;;;;36.92;15.63;;;;;;;1.00;100.00;99943.84;5206869;28;20032;-78
2021/12/07 00:35:56;;;;;;;35.13;14.13;;;;;;;0.98;100.00;99938.72;5199382;28;20045;-79
2021/12/07 00:38:27;;;;;;;36.40;14.85;;;;;;;0.99;100.00;99925.00;5206730;28;20213;-78
2021/12/07 00:40:59;;;;;;;36.70;15.20;;;;;;;1.07;100.00;99930.91;5205931;28;20293;-79
2021/12/07 00:43:31;;;;;;;41.08;16.13;;;;;;;1.02;100.00;99931.81;5199605;28;20489;-78
2021/12/07 00:46:02;;;;;;;37.92;15.45;;;;;;;1.07;100.00;99928.34;5211280;28;20053;-79
2021/12/07 00:48:33;;;;;;;35.55;15.50;;;;;;;1.02;100.00;99924.09;5206328;28;20577;-79
2021/12/07 00:51:03;;;;;;;39.70;16.17;;;;;;;1.02;100.00;99924.97;5209728;28;20115;-79
2021/12/07 00:53:33;;;;;;;42.17;14.52;;;;;;;1.04;100.00;99924.97;5209437;28;20100;-78
2021/12/07 00:56:05;;;;;;;39.03;15.05;;;;;;;1.08;100.00;99921.50;5211150;28;20290;-78
2021/12/07 00:58:35;;;;;;;32.20;14.25;;;;;;;1.10;100.00;99909.47;5209892;28;20269;-79
2021/12/07 01:01:12;;;;;;;38.33;15.32;;;;;;;1.05;100.00;99911.22;5216946;28;20032;-78
2021/12/07 01:03:43;;;;;;;38.88;15.30;;;;;;;1.09;100.00;99902.63;5207052;28;20025;-79
2021/12/07 01:06:32;;;;;;;36.70;15.38;;;;;;;1.12;100.00;99907.72;5210787;28;20438;-79
2021/12/07 01:26:02;;;;;;;37.95;15.60;;;;;;;1.21;100.00;99900.78;5209212;28;20499;-79
2021/12/07 01:28:37;;;;;;;39.28;16.42;;;;;;;1.20;100.00;99906.78;5209725;28;20029;-78
2021/12/07 01:31:17;;;;;;;35.03;16.38;;;;;;;1.22;100.00;99905.06;5216425;28;20666;-79
2021/12/07 01:36:48;;;;;;;40.92;16.95;;;;;;;1.12;100.00;99898.31;5209403;28;20068;-78
2021/12/07 01:39:53;;;;;;;45.80;16.77;;;;;;;1.12;100.00;99893.16;5197992;28;20083;-78
2021/12/07 01:50:32;;;;;;;41.95;17.83;;;;;;;1.04;100.00;99882.06;5209859;28;20033;-78
2021/12/07 02:01:12;;;;;;;43.42;19.25;;;;;;;1.06;100.00;99870.03;5215955;28;20017;-79
2021/12/07 02:03:42;;;;;;;43.67;17.55;;;;;;;1.03;100.00;99872.66;5208918;28;20029;-77
2021/12/07 02:06:13;;;;;;;41.22;16.15;;;;;;;1.08;100.00;99868.31;5208174;28;20064;-79
2021/12/07 02:08:44;;;;;;;46.40;18.15;;;;;;;1.03;100.00;99861.53;5208870;28;20025;-78
2021/12/07 02:11:15;;;;;;;42.50;16.27;;;;;;;1.07;100.00;99869.19;5209134;28;20095;-78
2021/12/07 02:16:18;;;;;;;47.53;18.00;;;;;;;1.06;100.00;99864.06;5213366;28;20091;-78
2021/12/07 02:18:48;;;;;;;41.22;16.83;;;;;;;1.02;100.00;99860.66;5208689;28;20034;-78
2021/12/07 02:21:23;;;;;;;39.38;16.45;;;;;;;1.04;100.00;99868.38;5209421;28;20562;-78
2021/12/07 02:23:54;;;;;;;47.85;17.98;;;;;;;0.98;100.00;99859.00;5208690;28;20029;-78
2021/12/07 02:26:24;;;;;;;43.58;17.98;;;;;;;1.01;100.00;99866.66;5207833;28;20036;-78
2021/12/07 02:28:54;;;;;;;39.85;16.95;;;;;;;1.02;100.00;99870.94;5210385;28;20537;-78
2021/12/07 02:31:25;;;;;;;41.85;17.70;;;;;;;0.94;100.00;99867.59;5212619;28;20025;-79
2021/12/07 02:33:56;;;;;;;46.92;18.80;;;;;;;0.94;100.00;99862.47;5208011;28;20108;-78
2021/12/07 02:36:26;;;;;;;43.30;17.58;;;;;;;0.90;100.00;99863.31;5197734;28;20055;-79
2021/12/07 02:38:57;;;;;;;40.40;16.55;;;;;;;0.95;100.00;99863.28;5208323;28;20486;-78
2021/12/07 02:41:28;;;;;;;45.28;17.55;;;;;;;0.92;100.00;99861.59;5207860;28;20044;-78
2021/12/07 02:43:58;;;;;;;38.20;16.10;;;;;;;0.94;100.00;99862.47;5213316;28;20469;-79
2021/12/07 02:46:28;;;;;;;40.83;17.13;;;;;;;0.92;100.00;99864.16;5211698;28;20467;-78
2021/12/07 02:48:59;;;;;;;41.35;17.35;;;;;;;0.90;100.00;99858.19;5208933;28;20036;-78
2021/12/07 02:51:29;;;;;;;36.17;16.85;;;;;;;0.83;100.00;99861.69;5208616;28;20509;-77
2021/12/07 02:54:00;;;;;;;40.83;16.73;;;;;;;0.89;100.00;99858.22;5198242;28;20021;-78
2021/12/07 02:56:31;;;;;;;38.78;17.00;;;;;;;0.89;100.00;99859.06;5207591;28;20452;-78
2021/12/07 02:59:03;;;;;;;41.10;16.38;;;;;;;0.87;100.00;99862.53;5209752;28;20025;-79
2021/12/07 03:01:40;;;;;;;41.63;17.13;;;;;;;0.90;100.00;99867.63;5212282;28;20076;-78
2021/12/07 03:04:18;;;;;;;39.55;17.52;;;;;;;0.89;100.00;99863.34;5204548;28;20025;-79
2021/12/07 03:26:53;;;;;;;35.67;15.55;;;;;;;0.92;100.00;99864.16;5207392;28;20414;-79
2021/12/07 03:29:24;;;;;;;38.20;15.63;;;;;;;0.97;100.00;99859.84;5209689;28;20108;-79
2021/12/07 03:31:54;;;;;;;39.22;16.73;;;;;;;0.99;100.00;99854.69;5211756;28;20498;-78
2021/12/07 03:34:24;;;;;;;45.00;17.23;;;;;;;0.95;100.00;99859.03;5206772;28;20094;-78
2021/12/07 03:36:55;;;;;;;34.97;14.93;;;;;;;1.02;100.00;99860.66;5206835;28;20029;-79
2021/12/07 03:39:25;;;;;;;38.22;16.95;;;;;;;1.04;100.00;99869.22;5196564;28;20029;-79
2021/12/07 03:41:55;;;;;;;41.60;16.38;;;;;;;1.06;100.00;99876.94;5207602;28;20123;-78
2021/12/07 03:44:26;;;;;;;42.95;15.60;;;;;;;1.10;100.00;99874.28;5209786;28;20108;-78
2021/12/07 03:46:57;;;;;;;39.05;14.75;;;;;;;1.09;100.00;99862.28;5209992;28;20477;-78
2021/12/07 03:49:27;;;;;;;36.67;16.05;;;;;;;1.18;100.00;99863.94;5207395;28;20037;-78
2021/12/07 03:51:57;;;;;;;33.50;14.48;;;;;;;1.22;100.00;99858.75;5206144;28;20564;-79
2021/12/07 03:54:27;;;;;;;35.65;15.15;;;;;;;1.31;100.00;99863.81;5207288;28;20060;-78
2021/12/07 03:56:58;;;;;;;34.40;15.30;;;;;;;1.41;100.00;99862.00;5206118;28;20041;-78
2021/12/07 03:59:28;;;;;;;35.40;14.80;;;;;;;1.44;100.00;99870.50;5208347;28;20112;-77
2021/12/07 04:01:58;;;;;;;31.10;12.30;;;;;;;1.48;100.00;99863.63;5210299;28;20052;-78
2021/12/07 04:04:29;;;;;;;33.65;14.77;;;;;;;1.50;100.00;99873.03;5205718;28;20025;-78
2021/12/07 04:06:59;;;;;;;33.85;14.00;;;;;;;1.55;100.00;99867.84;5205368;28;20079;-78
2021/12/07 04:09:31;;;;;;;34.47;13.98;;;;;;;1.57;100.00;99872.09;5206133;28;20025;-78
2021/12/07 04:12:02;;;;;;;32.67;14.85;;;;;;;1.60;100.00;99876.38;5206901;28;20463;-78
2021/12/07 04:14:32;;;;;;;36.00;14.82;;;;;;;1.52;100.00;99870.44;5211114;28;20112;-78
2021/12/07 04:17:02;;;;;;;36.00;14.60;;;;;;;1.58;100.00;99875.53;5209146;28;20048;-78
2021/12/07 04:19:33;;;;;;;34.28;14.57;;;;;;;1.60;100.00;99871.22;5206431;28;20158;-78
2021/12/07 04:22:03;;;;;;;31.17;13.77;;;;;;;1.59;100.00;99866.94;5206279;28;20040;-78
2021/12/07 04:24:33;;;;;;;31.42;13.13;;;;;;;1.61;100.00;99871.19;5206013;28;20041;-78
2021/12/07 04:27:05;;;;;;;32.75;12.73;;;;;;;1.70;100.00;99876.25;5205103;28;20120;-78
2021/12/07 04:29:35;;;;;;;32.28;13.88;;;;;;;1.71;100.00;99880.53;5206577;28;20035;-78
2021/12/07 04:32:06;;;;;;;32.55;14.32;;;;;;;1.68;100.00;99872.84;5208788;28;20405;-78
2021/12/07 04:34:36;;;;;;;28.05;12.93;;;;;;;1.73;100.00;99873.63;5205432;28;20294;-78
2021/12/07 04:37:07;;;;;;;32.30;14.38;;;;;;;1.65;100.00;99872.00;5204683;28;20483;-79
2021/12/07 04:39:38;;;;;;;30.45;14.27;;;;;;;1.66;100.00;99872.00;5205934;28;20052;-78
2021/12/07 04:42:08;;;;;;;30.23;14.52;;;;;;;1.67;100.00;99878.00;5206410;28;20456;-78
2021/12/07 04:44:45;;;;;;;30.77;12.93;;;;;;;1.71;100.00;99875.38;5209054;28;20033;-78
2021/12/07 04:47:28;;;;;;;32.75;13.80;;;;;;;1.66;100.00;99879.72;5201114;28;20029;-78
2021/12/07 04:58:09;;;;;;;31.55;14.00;;;;;;;1.62;100.00;99880.66;5201667;28;20120;-78
2021/12/07 05:00:39;;;;;;;36.30;15.07;;;;;;;1.61;100.00;99881.47;5211070;28;20479;-78
2021/12/07 05:03:12;;;;;;;28.33;12.70;;;;;;;1.70;100.00;99891.69;5209050;28;20032;-78
2021/12/07 05:05:48;;;;;;;29.85;13.52;;;;;;;1.68;100.00;99887.41;5207648;28;20030;-78
2021/12/07 05:08:40;;;;;;;26.23;11.32;;;;;;;1.82;100.00;99884.69;5207577;28;20029;-77
2021/12/07 05:13:56;;;;;;;31.67;12.35;;;;;;;1.85;100.00;99886.38;5210282;28;20033;-78
2021/12/07 05:16:42;;;;;;;27.65;12.05;;;;;;;1.87;100.00;99884.63;5208595;28;20032;-78
2021/12/07 05:24:52;;;;;;;29.77;13.07;;;;;;;1.73;100.00;99883.09;5206550;28;20051;-79
2021/12/07 05:38:38;;;;;;;35.13;14.05;;;;;;;1.70;100.00;99889.13;5209471;28;20040;-78
2021/12/07 05:41:09;;;;;;;31.70;13.82;;;;;;;1.77;100.00;99889.91;5205553;28;20100;-78
2021/12/07 05:43:39;;;;;;;34.17;14.32;;;;;;;1.74;100.00;99889.94;5214674;28;20055;-78
2021/12/07 05:46:10;;;;;;;30.08;13.70;;;;;;;1.77;100.00;99890.75;5216232;28;20036;-78
2021/12/07 05:48:41;;;;;;;33.00;13.57;;;;;;;1.75;100.00;99892.50;5199817;28;20471;-78
2021/12/07 05:51:12;;;;;;;31.08;13.13;;;;;;;1.76;100.00;99899.34;5210690;28;20510;-78
2021/12/07 05:53:42;;;;;;;33.25;13.93;;;;;;;1.71;100.00;99890.00;5209355;28;20057;-78
2021/12/07 05:56:12;;;;;;;31.98;13.25;;;;;;;1.71;100.00;99898.56;5207818;28;20386;-79
2021/12/07 05:58:43;;;;;;;31.90;13.70;;;;;;;1.68;100.00;99898.59;5202372;28;20554;-77
2021/12/07 06:01:13;;;;;;;27.55;13.65;;;;;;;1.73;100.00;99901.97;5204479;28;20437;-78
2021/12/07 06:03:43;;;;;;;29.17;13.43;;;;;;;1.74;100.00;99901.09;5215835;28;20049;-78
2021/12/07 06:06:13;;;;;;;28.20;12.35;;;;;;;1.75;100.00;99912.25;5246840;22;20059;-83
2021/12/07 06:08:44;;;;;;;30.05;13.13;;;;;;;1.71;100.00;99916.56;5234202;28;20570;-80
2021/12/07 06:11:14;;;;;;;32.72;13.55;;;;;;;1.81;100.00;99923.34;5230258;28;20298;-81
2021/12/07 06:13:44;;;;;;;31.05;13.02;;;;;;;1.76;100.00;99919.94;5239100;28;20470;-83
2021/12/07 06:16:16;;;;;;;27.60;12.15;;;;;;;1.82;100.00;99917.31;5236220;28;20040;-81
2021/12/07 06:18:47;;;;;;;33.05;13.32;;;;;;;1.85;100.00;99918.13;5209939;28;20036;-81
2021/12/07 06:21:17;;;;;;;29.60;13.07;;;;;;;1.70;100.00;99914.00;5210155;28;20387;-81
2021/12/07 06:23:47;;;;;;;30.45;13.35;;;;;;;1.65;100.00;99921.81;5207740;28;20442;-82
2021/12/07 06:26:18;;;;;;;28.55;12.73;;;;;;;1.69;100.00;99918.31;5210042;28;20222;-80
2021/12/07 06:28:48;;;;;;;28.85;12.70;;;;;;;1.61;100.00;99925.25;5208960;28;20022;-82
2021/12/07 06:31:19;;;;;;;33.08;13.15;;;;;;;1.65;100.00;99923.50;5217682;28;20036;-82
2021/12/07 06:33:49;;;;;;;30.27;13.13;;;;;;;1.87;100.00;99923.25;5208376;28;20732;-83
2021/12/07 06:36:20;;;;;;;24.45;12.40;;;;;;;1.82;100.00;99936.19;5207879;28;20021;-80
2021/12/07 06:38:51;;;;;;;28.58;12.52;;;;;;;1.82;100.00;99935.34;5206082;28;20029;-81
2021/12/07 06:41:21;;;;;;;30.05;13.43;;;;;;;1.75;100.00;99933.69;5207763;28;20025;-83
2021/12/07 06:43:51;;;;;;;30.80;13.55;;;;;;;1.66;100.00;99928.66;5209964;28;20048;-82
2021/12/07 06:46:21;;;;;;;26.65;12.35;;;;;;;1.70;100.00;99930.31;5227403;28;20035;-80
2021/12/07 06:48:52;;;;;;;30.38;13.13;;;;;;;1.47;100.00;99937.44;5208299;28;20041;-81
2021/12/07 06:51:22;;;;;;;27.02;13.32;;;;;;;1.51;100.00;99941.69;5208784;28;20117;-80
2021/12/07 06:53:53;;;;;;;26.30;13.05;;;;;;;1.57;100.00;99944.19;5209046;28;20052;-84
2021/12/07 06:56:24;;;;;;;30.15;12.65;;;;;;;1.53;100.00;99947.66;5206964;28;20093;-82
2021/12/07 06:58:54;;;;;;;25.73;12.20;;;;;;;1.56;100.00;99946.78;5210882;28;20103;-82
2021/12/07 07:01:24;;;;;;;31.30;13.85;;;;;;;1.49;100.00;99951.13;5216773;28;20086;-81
2021/12/07 07:03:55;;;;;;;30.08;13.30;;;;;;;1.48;100.00;99958.84;5207757;28;20029;-82
2021/12/07 07:06:25;;;;;;;27.38;12.45;;;;;;;1.43;100.00;99966.63;5206859;28;20030;-82
2021/12/07 07:08:56;;;;;;;29.65;12.82;;;;;;;1.40;100.00;99973.53;5208544;28;20402;-81
2021/12/07 07:11:26;;;;;;;30.40;14.13;;;;;;;1.38;100.00;99978.69;5208286;28;20064;-82
2021/12/07 07:13:57;;;;;;;27.52;13.25;;;;;;;1.37;100.00;99973.56;5211080;28;20491;-83
2021/12/07 07:16:28;;;;;;;30.38;12.95;;;;;;;1.40;100.00;99976.94;5211849;28;20582;-81
2021/12/07 07:18:59;;;;;;;30.70;13.32;;;;;;;1.35;100.00;99985.56;5207624;28;20033;-83
2021/12/07 07:21:29;;;;;;;30.73;13.40;;;;;;;1.31;100.00;99986.47;5210453;28;20109;-82
2021/12/07 07:24:00;;;;;;;29.63;12.98;;;;;;;1.28;100.00;99995.09;5209507;28;20017;-83
2021/12/07 07:26:30;;;;;;;27.42;12.60;;;;;;;1.36;100.00;99995.88;5207617;28;20109;-82
2021/12/07 07:29:00;;;;;;;29.80;13.68;;;;;;;1.34;100.00;99994.16;5211052;28;20538;-81
2021/12/07 07:31:31;;;;;;;29.10;13.43;;;;;;;1.40;100.00;100010.41;5214064;28;20040;-81
2021/12/07 07:34:01;;;;;;;30.85;12.68;;;;;;;1.35;100.00;100006.16;5207197;28;20026;-82
2021/12/07 07:36:32;;;;;;;35.80;13.93;;;;;;;1.25;100.00;100002.81;5206833;28;20049;-81
2021/12/07 07:39:03;;;;;;;29.50;13.27;;;;;;;1.26;100.00;100014.81;5204553;28;20025;-82
2021/12/07 07:41:34;;;;;;;30.88;13.52;;;;;;;1.29;100.00;100014.81;5205756;28;20037;-81
2021/12/07 07:44:05;;;;;;;31.23;13.55;;;;;;;1.34;100.00;100028.47;5215374;28;20028;-83
2021/12/07 07:46:36;;;;;;;32.10;13.73;;;;;;;1.43;100.00;100017.25;5211151;28;20136;-83
2021/12/07 07:49:07;;;;;;;31.00;13.38;;;;;;;1.37;100.00;100028.44;5203841;28;20140;-82
2021/12/07 07:51:37;;;;;;;27.58;13.52;;;;;;;1.46;100.00;100033.53;5204462;28;20029;-82
2021/12/07 07:54:08;;;;;;;30.92;13.70;;;;;;;1.40;100.00;100033.56;5203671;28;20268;-82
2021/12/07 07:56:39;;;;;;;29.52;13.05;;;;;;;1.43;100.00;100038.69;5205517;28;20032;-82
2021/12/07 07:59:09;;;;;;;32.53;13.38;;;;;;;1.45;100.00;100039.56;5205415;28;20477;-82
2021/12/07 08:01:40;;;;;;;31.23;13.52;;;;;;;1.45;100.00;100044.72;5208217;28;20060;-82
2021/12/07 08:04:10;;;;;;;32.60;13.60;;;;;;;1.47;100.00;100035.25;5204727;28;20032;-82
2021/12/07 08:06:41;;;;;;;30.27;13.55;;;;;;;1.56;100.00;100050.59;5204407;28;20033;-82
2021/12/07 08:09:11;;;;;;;30.77;13.50;;;;;;;1.59;100.00;100048.00;5205672;28;20029;-82
2021/12/07 08:11:41;;;;;;;27.63;13.07;;;;;;;1.69;100.00;100052.22;5204395;28;20083;-82
2021/12/07 08:14:12;;;;;;;30.25;13.38;;;;;;;1.76;100.00;100053.03;5210776;28;20024;-82
2021/12/07 08:16:43;;;;;;;32.42;13.68;;;;;;;1.77;100.00;100058.13;5207197;28;20037;-82
2021/12/07 08:19:13;;;;;;;29.88;13.85;;;;;;;1.76;100.00;100058.16;5203748;28;20021;-82
2021/12/07 08:21:44;;;;;;;32.42;13.52;;;;;;;1.71;100.00;100060.78;5205344;28;20470;-82
2021/12/07 08:24:14;;;;;;;27.10;12.82;;;;;;;1.78;100.00;100062.41;5203412;28;20033;-82
2021/12/07 08:26:45;;;;;;;28.25;13.55;;;;;;;1.71;100.00;100067.66;5203795;28;20068;-82
2021/12/07 08:29:15;;;;;;;29.70;13.93;;;;;;;1.72;100.00;100057.34;5205457;28;20064;-81
2021/12/07 08:31:45;;;;;;;27.88;13.23;;;;;;;1.78;100.00;100070.16;5208061;28;20030;-82
2021/12/07 08:34:16;;;;;;;28.85;13.25;;;;;;;1.81;100.00;100063.25;5203428;28;20029;-82
2021/12/07 08:36:46;;;;;;;26.35;12.68;;;;;;;1.80;100.00;100065.88;5204625;28;20087;-82
2021/12/07 08:39:17;;;;;;;27.25;12.65;;;;;;;1.92;100.00;100063.16;5204096;28;20025;-82
2021/12/07 08:41:47;;;;;;;29.65;12.90;;;;;;;1.88;100.00;100066.63;5205058;28;20037;-82
2021/12/07 08:44:17;;;;;;;28.20;13.48;;;;;;;1.83;100.00;100065.84;5209577;28;20025;-82
2021/12/07 08:46:48;;;;;;;31.73;13.30;;;;;;;1.95;100.00;100060.53;5207774;28;20506;-82
2021/12/07 08:49:19;;;;;;;28.92;13.43;;;;;;;1.91;100.00;100064.03;5205420;28;20024;-81
2021/12/07 08:51:51;;;;;;;28.10;12.90;;;;;;;2.06;100.00;100064.75;5206638;28;20025;-82
2021/12/07 09:00:12;;;;;;;24.67;12.13;;;;;;;2.20;100.00;100069.75;5208293;28;20032;-82
2021/12/07 09:02:43;;;;;;;27.60;12.98;;;;;;;2.09;100.00;100075.03;5207743;28;20173;-82
2021/12/07 09:05:13;;;;;;;27.90;14.18;;;;;;;2.10;100.00;100068.13;5203921;28;20250;-82
2021/12/07 09:07:45;;;;;;;27.75;13.27;;;;;;;2.28;100.00;100081.69;5205318;28;20060;-82
2021/12/07 09:10:16;;;;;;;29.73;13.02;;;;;;;2.24;100.00;100085.19;5205342;28;20026;-81
2021/12/07 09:12:47;;;;;;;26.67;13.05;;;;;;;2.27;100.00;100090.31;5212055;28;20026;-81
2021/12/07 09:15:19;;;;;;;26.58;13.05;;;;;;;2.39;100.00;100087.59;5219954;28;20032;-81
2021/12/07 09:17:49;;;;;;;26.25;12.52;;;;;;;2.42;100.00;100087.56;5207879;28;20056;-83
2021/12/07 09:20:20;;;;;;;25.23;12.85;;;;;;;2.35;100.00;100091.06;5209455;28;20503;-82
2021/12/07 09:22:50;;;;;;;27.98;13.18;;;;;;;2.49;100.00;100090.94;5211207;28;20063;-82
2021/12/07 09:25:21;;;;;;;29.15;13.15;;;;;;;2.44;100.00;100090.09;5209263;28;20060;-82
2021/12/07 09:27:51;;;;;;;26.95;12.88;;;;;;;2.39;100.00;100087.59;5213542;28;20034;-81
2021/12/07 09:30:22;;;;;;;25.35;13.00;;;;;;;2.40;100.00;100096.19;5212319;28;20029;-83
2021/12/07 09:32:53;;;;;;;26.27;12.18;;;;;;;2.49;100.00;100106.41;5209844;28;20033;-82
2021/12/07 09:35:24;;;;;;;25.05;12.35;;;;;;;2.50;100.00;100108.09;5209311;28;20041;-82
2021/12/07 09:37:55;;;;;;;24.98;12.63;;;;;;;2.61;100.00;100106.25;5210594;28;20099;-82
2021/12/07 09:40:28;;;;;;;27.15;12.77;;;;;;;2.60;100.00;100110.56;5209068;28;20029;-80
2021/12/07 09:42:58;;;;;;;25.17;12.25;;;;;;;2.63;100.00;100107.94;5212158;28;20330;-81
2021/12/07 09:45:30;;;;;;;26.55;13.00;;;;;;;2.57;100.00;100105.44;5216243;28;20383;-81
2021/12/07 09:48:03;;;;;;;29.38;13.15;;;;;;;2.73;100.00;100112.16;5214717;28;20025;-83
2021/12/07 09:50:40;;;;;;;28.58;15.02;;;;;;;2.81;100.00;100114.59;5211804;28;20040;-81
2021/12/07 09:53:14;;;;;;;25.58;13.35;;;;;;;2.85;100.00;100108.56;5207482;28;20101;-81
2021/12/07 09:55:46;;;;;;;24.10;12.45;;;;;;;2.79;100.00;100108.59;5209169;28;20055;-83
2021/12/07 09:58:17;;;;;;;25.63;13.35;;;;;;;2.75;100.00;100112.09;5207724;28;20032;-81
2021/12/07 10:00:49;;;;;;;25.90;13.02;;;;;;;2.75;100.00;100117.25;5211892;28;20040;-81
2021/12/07 10:03:21;;;;;;;31.25;13.85;;;;;;;2.82;100.00;100129.25;5208570;28;20116;-81
2021/12/07 10:05:52;;;;;;;26.27;12.25;;;;;;;2.67;100.00;100119.94;5209683;28;20499;-82
2021/12/07 10:08:23;;;;;;;27.35;12.52;;;;;;;2.73;100.00;100129.34;5208839;28;20036;-83
2021/12/07 10:10:56;;;;;;;26.20;12.50;;;;;;;2.70;100.00;100129.38;5208864;28;20025;-82
2021/12/07 10:13:29;;;;;;;26.33;13.27;;;;;;;2.89;100.00;100123.13;5209140;28;20021;-82
2021/12/07 10:16:03;;;;;;;24.92;12.70;;;;;;;2.85;100.00;100117.13;5213365;28;20025;-82
2021/12/07 10:18:36;;;;;;;31.08;13.52;;;;;;;2.84;100.00;100124.91;5206477;28;20049;-84
2021/12/07 10:21:16;;;;;;;26.73;12.75;;;;;;;2.96;100.00;100120.44;5207134;28;20021;-80
2021/12/07 10:23:55;;;;;;;26.98;13.40;;;;;;;3.14;100.00;100111.59;5206957;28;20021;-82
2021/12/07 10:26:28;;;;;;;26.10;13.20;;;;;;;3.01;100.00;100104.91;5208213;28;20489;-83
2021/12/07 10:29:10;;;;;;;24.27;12.52;;;;;;;3.18;100.00;100114.13;5209429;28;20048;-81
2021/12/07 10:31:44;;;;;;;27.92;12.65;;;;;;;3.28;100.00;100107.09;5204323;28;20312;-81
2021/12/07 10:34:19;;;;;;;24.52;12.65;;;;;;;3.20;100.00;100099.47;5205956;28;20041;-80
2021/12/07 10:36:58;;;;;;;25.02;12.73;;;;;;;3.24;100.00;100092.53;5206518;28;20483;-82
2021/12/07 10:39:34;;;;;;;28.27;12.95;;;;;;;3.42;100.00;100094.84;5207398;28;20068;-82
2021/12/07 10:42:08;;;;;;;27.73;13.18;;;;;;;3.25;100.00;100081.34;5208137;28;20131;-80
2021/12/07 10:44:40;;;;;;;24.80;12.30;;;;;;;3.14;100.00;100078.91;5219618;28;20025;-81
2021/12/07 10:47:13;;;;;;;25.67;12.43;;;;;;;3.29;100.00;100072.66;5206997;28;20029;-81
2021/12/07 10:49:51;;;;;;;24.73;12.15;;;;;;;3.22;100.00;100082.22;5205639;28;20449;-82
2021/12/07 10:52:30;;;;;;;27.60;13.05;;;;;;;3.34;100.00;100088.97;5206343;28;20032;-82
2021/12/07 10:55:22;;;;;;;24.67;12.48;;;;;;;3.38;100.00;100093.19;5205821;28;20132;-82
2021/12/07 10:57:54;;;;;;;27.08;12.73;;;;;;;3.36;100.00;100094.97;5202375;28;20025;-82
2021/12/07 11:00:40;;;;;;;25.67;12.82;;;;;;;3.47;100.00;100087.88;5215654;28;20495;-81
2021/12/07 11:03:17;;;;;;;;;;;;;;;3.47;100.00;100093.06;5206423;28;20411;-82
2021/12/07 11:05:51;;;;;;;26.50;11.40;;;;;;;3.26;100.00;100090.78;5204754;28;19913;-81
2021/12/07 11:08:29;;;;;;;22.02;11.75;;;;;;;3.30;100.00;100095.91;5203684;28;20036;-82
2021/12/07 11:11:03;;;;;;;25.33;12.48;;;;;;;3.40;100.00;100101.78;5205880;28;20025;-80
2021/12/07 11:13:35;;;;;;;24.88;12.15;;;;;;;3.20;100.00;100104.63;5217245;28;20025;-82
2021/12/07 11:16:14;;;;;;;25.70;13.10;;;;;;;3.16;100.00;100112.47;5216358;28;20018;-82
2021/12/07 11:18:48;;;;;;;24.73;12.85;;;;;;;3.15;100.00;100108.13;5204140;28;20029;-81
2021/12/07 11:21:19;;;;;;;23.27;12.50;;;;;;;3.09;100.00;100106.53;5205400;28;20112;-81
2021/12/07 11:23:55;;;;;;;22.52;12.32;;;;;;;3.18;100.00;100106.38;5186012;28;20025;-80
2021/12/07 11:31:49;;;;;;;26.52;12.55;;;;;;;3.31;100.00;100100.19;5207296;28;20438;-79
2021/12/07 11:34:22;;;;;;;24.77;12.73;;;;;;;3.52;100.00;100106.78;5203242;28;20095;-80
2021/12/07 11:37:14;;;;;;;23.02;11.88;;;;;;;3.52;100.00;100112.78;5204504;28;20026;-82
2021/12/07 11:39:52;;;;;;;24.35;12.05;;;;;;;3.60;100.00;100110.94;5191396;28;20435;-83
2021/12/07 11:42:32;;;;;;;22.05;11.55;;;;;;;3.46;100.00;100117.16;5190124;28;20036;-82
2021/12/07 11:45:21;;;;;;;22.65;12.23;;;;;;;3.60;100.00;100116.94;5208771;28;20036;-82
2021/12/07 11:48:02;;;;;;;25.92;12.32;;;;;;;3.57;100.00;100103.22;5206518;28;20029;-82
2021/12/07 11:50:35;;;;;;;23.98;12.45;;;;;;;3.58;100.00;100092.88;5204941;28;20505;-80
2021/12/07 11:53:12;;;;;;;21.67;11.07;;;;;;;3.73;100.00;100105.56;5204964;28;20040;-83
2021/12/07 11:55:45;;;;;;;21.63;11.40;;;;;;;3.52;100.00;100097.28;5203171;28;20033;-82
2021/12/07 11:58:17;;;;;;;23.33;11.57;;;;;;;3.70;100.00;100100.44;5206478;28;20065;-82
2021/12/07 12:00:52;;;;;;;24.83;11.95;;;;;;;3.68;100.00;100106.50;5212001;28;20291;-81
2021/12/07 12:03:25;;;;;;;24.40;12.15;;;;;;;3.57;100.00;100118.72;5206383;28;20104;-82
2021/12/07 12:05:55;;;;;;;23.10;11.85;;;;;;;3.59;100.00;100112.66;5221095;23;20568;-78
2021/12/07 12:08:26;;;;;;;25.08;12.65;;;;;;;3.56;100.00;100111.00;5255528;28;20218;-78
2021/12/07 12:11:02;;;;;;;25.25;12.20;;;;;;;3.51;100.00;100105.91;5252475;28;20032;-79
2021/12/07 12:13:56;;;;;;;21.25;11.02;;;;;;;3.50;100.00;100116.28;5254019;28;20058;-78
2021/12/07 12:16:38;;;;;;;21.15;10.77;;;;;;;3.48;100.00;100110.25;5246362;28;20116;-79
2021/12/07 12:19:32;;;;;;;23.33;11.23;;;;;;;3.36;100.00;100115.63;5230163;28;20029;-78
2021/12/07 12:22:20;;;;;;;26.85;12.13;;;;;;;3.31;100.00;100122.56;5228972;28;20045;-78
2021/12/07 12:24:58;;;;;;;20.13;10.48;;;;;;;3.36;100.00;100120.78;5225987;28;20024;-79
2021/12/07 12:27:33;;;;;;;24.38;11.82;;;;;;;3.21;100.00;100123.56;5230000;28;20036;-78
2021/12/07 12:30:21;;;;;;;22.08;11.13;;;;;;;3.20;100.00;100121.84;5232893;28;20108;-78
2021/12/07 12:32:58;;;;;;;24.65;12.13;;;;;;;3.18;100.00;100119.28;5228682;28;20064;-79
2021/12/07 12:35:38;;;;;;;27.67;12.65;;;;;;;3.15;100.00;100106.44;5230005;28;20036;-79
2021/12/07 12:38:31;;;;;;;22.77;11.98;;;;;;;3.27;100.00;100118.31;5229883;28;20033;-79
2021/12/07 12:41:13;;;;;;;26.05;12.77;;;;;;;3.23;100.00;100126.97;5229001;28;20028;-79
2021/12/07 12:43:53;;;;;;;24.98;12.98;;;;;;;3.15;100.00;100126.22;5230576;28;20033;-79
2021/12/07 12:46:26;;;;;;;24.27;12.68;;;;;;;3.09;100.00;100126.31;5239939;28;20025;-79
2021/12/07 12:49:00;;;;;;;25.95;12.57;;;;;;;3.09;100.00;100128.88;5226780;28;20040;-78
2021/12/07 12:51:41;;;;;;;27.33;12.70;;;;;;;2.97;100.00;100121.28;5235966;28;20490;-79
2021/12/07 12:54:12;;;;;;;27.38;13.95;;;;;;;3.08;100.00;100119.44;5235414;28;21411;-79
2021/12/07 12:56:42;;;;;;;24.67;13.00;;;;;;;3.11;100.00;100109.94;5233394;28;20067;-79
2021/12/07 12:59:13;;;;;;;24.67;12.75;;;;;;;3.14;100.00;100124.50;5226657;28;20041;-78
2021/12/07 13:01:46;;;;;;;25.02;13.35;;;;;;;3.29;100.00;100119.13;5242783;28;20029;-79
2021/12/07 13:04:28;;;;;;;25.13;13.52;;;;;;;3.34;100.00;100107.88;5238115;28;20085;-79
2021/12/07 13:07:44;;;;;;;26.85;13.23;;;;;;;3.31;100.00;100105.34;5228139;28;20033;-79
2021/12/07 13:09:59;;;;;;;27.15;14.07;;;;;;;3.23;100.00;100108.91;5229855;28;20036;-79
2021/12/07 13:12:38;;;;;;;26.95;14.18;;;;;;;3.34;100.00;100112.19;5238007;28;20547;-79
2021/12/07 13:15:12;;;;;;;26.42;13.35;;;;;;;3.34;100.00;100113.03;5244482;28;20115;-79
2021/12/07 13:17:46;;;;;;;25.38;13.30;;;;;;;3.35;100.00;100108.75;5235578;28;20040;-79